Cullar-Vega, Spain
Current Conditions -  °F | °C
As of 11:00 AM on Thursday 29 Jan 2015 (Local Time) from LEGR Reporting Station
Few Clouds Few Clouds  
Wind Chill:   Ceiling: Unl
Heat Index:   Visibility: 6mi
Dew Point:   Wind: 1mph
Humidity: 81%   Direction: NA
Pressure: 30.18"   Gusts: NA
Location:  37.15°N, 3.67°W
Report Text: LEGR 291000Z VRB01KT 9999 FEW010 05/02 Q1022
Loading
Personal Weather Stations






























Interactive Weather Map New forecast layout! Learn more

10-Day Weather Forecast

Advertisements
Track Severe Weather on mobile